Time;durP1;ratioP1;P1;durP2;ratioP2;P2;SDS_P1;SDS_P2;PMS_P1;PMS_P2;Temp;Humidity;BMP_temperature;BMP_pressure;BME280_temperature;BME280_humidity;BME280_pressure;Samples;Min_cycle;Max_cycle;Signal;HPM_P1;HPM_P2
2022/05/25 00:02:18;;;;;;;7.03;5.65;;;;;;;15.68;79.53;96119.77;1789726;80;20949;-81
2022/05/25 00:04:44;;;;;;;7.97;6.70;;;;;;;15.67;79.51;96116.36;1789378;80;20949;-81
2022/05/25 00:07:12;;;;;;;8.30;6.83;;;;;;;15.69;79.50;96114.83;1789308;80;20947;-82
2022/05/25 00:09:38;;;;;;;9.05;6.65;;;;;;;15.67;79.48;96115.05;1789568;80;21406;-81
2022/05/25 00:12:06;;;;;;;7.55;6.75;;;;;;;15.65;79.54;96117.09;1789519;80;21004;-82
2022/05/25 00:14:32;;;;;;;7.70;6.90;;;;;;;15.64;79.62;96112.88;1789395;80;21000;-80
2022/05/25 00:16:59;;;;;;;6.75;6.15;;;;;;;15.63;79.65;96106.03;1789462;80;20944;-81
2022/05/25 00:22:09;;;;;;;6.35;5.60;;;;;;;15.63;79.72;96094.25;1789644;80;21997;-81
2022/05/25 00:24:36;;;;;;;6.62;6.03;;;;;;;15.62;79.76;96091.34;1789159;80;21000;-81
2022/05/25 00:27:03;;;;;;;7.85;6.78;;;;;;;15.64;79.85;96095.05;1790059;80;21011;-81
2022/05/25 00:29:29;;;;;;;7.60;6.78;;;;;;;15.65;79.86;96081.73;1795649;80;21106;-81
2022/05/25 00:31:55;;;;;;;7.35;6.60;;;;;;;15.68;79.90;96087.03;1795851;80;20987;-81
2022/05/25 00:34:21;;;;;;;7.22;6.40;;;;;;;15.68;79.96;96084.41;1795897;80;20940;-82
2022/05/25 00:36:46;;;;;;;7.22;6.53;;;;;;;15.70;80.01;96091.03;1795817;80;21302;-81
2022/05/25 00:39:12;;;;;;;6.47;5.87;;;;;;;15.73;79.83;96085.85;1795668;80;20940;-82
2022/05/25 00:41:38;;;;;;;8.23;6.40;;;;;;;15.80;79.76;96090.52;1795873;80;20947;-81
2022/05/25 00:44:04;;;;;;;7.50;6.70;;;;;;;15.87;79.67;96093.33;1796074;80;20959;-81
2022/05/25 00:46:30;;;;;;;8.33;6.75;;;;;;;15.93;79.57;96096.07;1795974;80;20995;-81
2022/05/25 00:49:04;;;;;;;9.13;7.10;;;;;;;15.99;79.25;96095.20;1795901;80;20979;-82
2022/05/25 00:51:39;;;;;;;7.30;6.60;;;;;;;16.02;79.41;96099.48;1795429;80;21031;-81
2022/05/25 00:54:15;;;;;;;7.40;6.70;;;;;;;15.95;79.30;96102.72;1795499;80;20948;-82
2022/05/25 00:56:44;;;;;;;6.10;5.50;;;;;;;15.90;79.18;96106.48;1796011;80;20999;-81
2022/05/25 00:59:14;;;;;;;7.15;5.97;;;;;;;15.87;79.31;96110.87;1773290;80;21015;-80
2022/05/25 01:01:41;;;;;;;7.67;5.90;;;;;;;15.87;79.36;96113.48;1795709;80;21332;-80
2022/05/25 01:04:07;;;;;;;11.05;8.55;;;;;;;15.90;79.47;96115.15;1796158;80;20951;-81
2022/05/25 01:07:08;;;;;;;8.35;6.65;;;;;;;15.98;79.40;96119.30;1795786;80;20932;-81
2022/05/25 01:09:39;;;;;;;8.40;6.65;;;;;;;16.04;79.35;96118.91;1795367;80;20959;-80
2022/05/25 01:12:22;;;;;;;7.97;7.12;;;;;;;16.06;79.26;96126.84;1795676;80;20951;-81
2022/05/25 01:14:56;;;;;;;7.42;6.40;;;;;;;16.03;79.10;96127.80;1795535;80;20980;-81
2022/05/25 01:17:40;;;;;;;6.72;5.70;;;;;;;15.96;79.18;96125.78;1794821;80;20989;-82
2022/05/25 01:20:14;;;;;;;7.80;6.37;;;;;;;15.93;79.27;96124.38;1795868;80;20997;-82
2022/05/25 01:23:17;;;;;;;7.40;5.62;;;;;;;15.96;79.38;96127.09;1796012;80;21107;-82
2022/05/25 01:26:08;;;;;;;8.85;6.83;;;;;;;15.99;79.45;96133.20;1795745;80;21324;-82
2022/05/25 01:29:05;;;;;;;6.92;6.33;;;;;;;16.03;79.60;96136.45;1791283;80;21097;-82
2022/05/25 01:31:54;;;;;;;9.68;7.10;;;;;;;16.04;79.49;96139.36;1789440;80;21419;-82
2022/05/25 01:34:34;;;;;;;8.98;6.35;;;;;;;16.00;79.47;96145.28;1789517;80;21012;-82
2022/05/25 01:37:26;;;;;;;6.30;5.55;;;;;;;15.93;79.50;96141.92;1789333;80;20930;-82
2022/05/25 01:40:13;;;;;;;6.78;6.03;;;;;;;15.90;79.48;96139.23;1789274;80;20975;-81
2022/05/25 01:42:43;;;;;;;6.53;5.92;;;;;;;15.89;79.59;96147.61;1786390;80;21013;-82
2022/05/25 01:45:09;;;;;;;7.75;6.12;;;;;;;15.88;79.72;96151.25;1788965;80;21391;-82
2022/05/25 01:47:38;;;;;;;6.67;6.08;;;;;;;15.90;79.84;96157.06;1789393;80;20954;-82
2022/05/25 01:50:09;;;;;;;8.13;7.20;;;;;;;15.93;79.86;96161.06;1789450;80;21344;-82
2022/05/25 01:52:40;;;;;;;5.90;5.30;;;;;;;15.95;79.87;96159.56;1789458;80;20985;-83
2022/05/25 01:55:10;;;;;;;6.75;6.05;;;;;;;15.94;79.87;96160.04;1788389;80;21044;-82
2022/05/25 01:57:38;;;;;;;6.53;5.90;;;;;;;15.92;79.92;96158.16;1762749;80;21013;-82
2022/05/25 02:00:06;;;;;;;6.47;5.35;;;;;;;15.88;80.00;96159.63;1789205;80;21009;-82
2022/05/25 02:05:17;;;;;;;7.00;5.78;;;;;;;15.81;80.18;96153.16;1789416;80;21092;-82
2022/05/25 02:08:18;;;;;;;7.12;5.85;;;;;;;15.78;80.28;96152.78;1789482;80;21065;-82
2022/05/25 02:10:52;;;;;;;6.30;4.72;;;;;;;15.74;80.35;96150.31;1789523;80;21075;-82
2022/05/25 02:13:41;;;;;;;6.08;5.45;;;;;;;15.71;80.38;96146.83;1777489;80;21348;-82
2022/05/25 02:16:43;;;;;;;6.80;6.15;;;;;;;15.67;80.58;96141.23;1743549;82;21007;-81
2022/05/25 02:19:14;;;;;;;6.60;5.97;;;;;;;15.64;80.90;96136.44;1743602;82;21442;-82
2022/05/25 02:21:59;;;;;;;7.45;6.15;;;;;;;15.61;80.92;96139.47;1743381;82;21173;-82
2022/05/25 02:24:39;;;;;;;6.85;5.83;;;;;;;15.62;81.28;96143.72;1761915;80;20996;-82
2022/05/25 02:27:20;;;;;;;8.55;5.70;;;;;;;15.63;81.26;96144.01;1787950;80;20971;-82
2022/05/25 02:29:48;;;;;;;7.92;6.58;;;;;;;15.62;81.32;96146.34;1789281;80;21074;-82
2022/05/25 02:32:18;;;;;;;8.70;7.05;;;;;;;15.58;81.44;96139.38;1789703;80;20948;-82
2022/05/25 02:34:47;;;;;;;6.50;5.78;;;;;;;15.55;81.59;96140.33;1789419;80;21381;-82
2022/05/25 02:37:13;;;;;;;6.70;5.90;;;;;;;15.55;81.67;96138.52;1789328;80;20970;-82
2022/05/25 02:39:39;;;;;;;7.53;6.25;;;;;;;15.56;81.72;96143.23;1789845;80;20968;-82
2022/05/25 02:42:14;;;;;;;6.40;5.80;;;;;;;15.57;81.78;96153.48;1789798;80;20979;-82
2022/05/25 02:44:41;;;;;;;7.08;6.30;;;;;;;15.57;81.85;96157.92;1789718;80;20989;-82
2022/05/25 02:47:08;;;;;;;6.37;5.70;;;;;;;15.60;81.94;96153.59;1789672;80;20993;-82
2022/05/25 02:49:35;;;;;;;7.35;6.55;;;;;;;15.63;82.46;96164.16;1789637;80;20993;-81
2022/05/25 02:52:01;;;;;;;9.80;7.00;;;;;;;15.65;82.45;96153.75;1789363;80;20954;-82
2022/05/25 02:54:26;;;;;;;7.37;6.28;;;;;;;15.68;82.44;96161.17;1789770;80;21374;-82
2022/05/25 02:56:52;;;;;;;9.58;7.78;;;;;;;15.72;82.55;96164.14;1789621;80;21017;-81
2022/05/25 02:59:18;;;;;;;9.05;8.15;;;;;;;15.73;82.42;96164.44;1789634;80;21045;-82
2022/05/25 03:01:43;;;;;;;9.40;8.43;;;;;;;15.74;82.35;96162.91;1789277;80;20957;-82
2022/05/25 03:04:09;;;;;;;10.32;9.23;;;;;;;15.74;82.36;96163.41;1789299;80;22085;-82
2022/05/25 03:06:35;;;;;;;9.50;8.55;;;;;;;15.74;82.45;96165.52;1789867;80;20965;-82
2022/05/25 03:09:00;;;;;;;9.95;8.93;;;;;;;15.74;82.53;96163.41;1763056;80;20957;-82
2022/05/25 03:11:26;;;;;;;11.43;10.13;;;;;;;15.72;82.51;96158.91;1789372;80;20977;-82
2022/05/25 03:13:53;;;;;;;10.78;9.68;;;;;;;15.69;82.67;96163.28;1789277;80;21407;-81
2022/05/25 03:16:19;;;;;;;11.12;9.83;;;;;;;15.69;82.74;96163.28;1789363;80;21424;-82
2022/05/25 03:18:47;;;;;;;9.75;8.75;;;;;;;15.71;83.03;96163.86;1789499;80;20981;-82
2022/05/25 03:21:14;;;;;;;9.38;8.43;;;;;;;15.72;83.04;96164.14;1789126;80;21391;-81
2022/05/25 03:23:39;;;;;;;10.48;8.93;;;;;;;15.76;83.05;96166.61;1789720;80;20949;-81
2022/05/25 03:26:06;;;;;;;10.00;8.95;;;;;;;15.77;83.10;96172.14;1788708;80;21020;-81
2022/05/25 03:28:32;;;;;;;10.55;9.43;;;;;;;15.77;83.17;96172.94;1789142;80;21430;-81
2022/05/25 03:30:58;;;;;;;10.43;9.10;;;;;;;15.78;83.17;96175.05;1788587;80;20996;-81
2022/05/25 03:33:23;;;;;;;12.80;8.98;;;;;;;15.80;83.40;96179.08;1789559;80;21039;-81
2022/05/25 03:35:50;;;;;;;12.07;10.53;;;;;;;15.81;83.36;96175.95;1789363;80;20970;-80
2022/05/25 03:38:16;;;;;;;11.80;10.50;;;;;;;15.78;83.42;96175.87;1789564;80;21013;-81
2022/05/25 03:40:42;;;;;;;11.90;10.80;;;;;;;15.79;83.69;96177.98;1789664;80;21376;-81
2022/05/25 03:43:10;;;;;;;12.65;11.35;;;;;;;15.81;83.77;96181.19;1789538;80;21028;-81
2022/05/25 03:45:35;;;;;;;14.47;12.25;;;;;;;15.81;83.87;96175.95;1781457;80;21363;-81
2022/05/25 03:48:07;;;;;;;15.55;13.95;;;;;;;15.80;83.85;96178.27;1789629;80;21017;-81
2022/05/25 03:50:30;;;;;;;14.90;12.95;;;;;;;15.78;83.94;96176.36;1789484;80;20996;-81
2022/05/25 03:52:56;;;;;;;14.93;13.30;;;;;;;15.76;84.19;96179.70;1789380;80;21012;-81
2022/05/25 03:55:22;;;;;;;14.53;13.03;;;;;;;15.76;84.38;96175.78;1789303;80;21053;-80
2022/05/25 03:57:47;;;;;;;14.90;12.15;;;;;;;15.77;84.36;96166.90;1789537;80;20989;-81
2022/05/25 04:00:14;;;;;;;15.90;12.43;;;;;;;15.78;84.33;96165.88;1789421;80;21017;-81
2022/05/25 04:02:39;;;;;;;13.98;11.50;;;;;;;15.78;84.35;96158.84;1789260;80;20942;-81
2022/05/25 04:05:09;;;;;;;13.10;11.25;;;;;;;15.80;84.40;96151.56;1789522;80;20981;-81
2022/05/25 04:07:43;;;;;;;14.83;11.90;;;;;;;15.80;84.26;96148.95;1789764;80;20978;-81
2022/05/25 04:10:13;;;;;;;13.88;12.37;;;;;;;15.84;84.27;96147.98;1789415;80;20992;-81
2022/05/25 04:12:40;;;;;;;14.73;13.18;;;;;;;15.86;84.26;96148.56;1789337;80;20981;-81
2022/05/25 04:15:07;;;;;;;13.83;12.40;;;;;;;15.87;84.37;96147.55;1789522;80;20985;-81
2022/05/25 04:17:33;;;;;;;13.62;12.33;;;;;;;15.86;84.40;96145.95;1789424;80;20941;-81
2022/05/25 04:19:59;;;;;;;16.27;12.82;;;;;;;15.86;84.65;96148.05;1789445;80;20970;-81
2022/05/25 04:22:25;;;;;;;14.83;12.50;;;;;;;15.93;84.74;96150.58;1789374;80;20985;-81
2022/05/25 04:24:51;;;;;;;13.50;12.25;;;;;;;15.96;84.93;96148.86;1789369;80;20959;-81
2022/05/25 04:27:18;;;;;;;16.85;13.48;;;;;;;15.98;85.06;96151.25;1789480;80;21322;-81
2022/05/25 04:29:44;;;;;;;14.15;12.68;;;;;;;16.06;85.12;96154.35;1789375;80;21079;-81
2022/05/25 04:32:10;;;;;;;15.53;13.05;;;;;;;16.09;84.89;96152.59;1788642;80;20974;-81
2022/05/25 04:34:35;;;;;;;15.00;12.75;;;;;;;16.13;84.79;96152.47;1788656;80;20957;-81
2022/05/25 04:39:46;;;;;;;13.93;11.90;;;;;;;16.17;84.63;96158.05;1789440;80;21007;-80
2022/05/25 04:42:12;;;;;;;14.10;11.70;;;;;;;16.14;84.62;96163.23;1789132;80;21369;-80
2022/05/25 04:44:38;;;;;;;13.83;12.13;;;;;;;16.17;84.86;96163.30;1789409;80;21001;-81
2022/05/25 04:47:08;;;;;;;12.25;11.05;;;;;;;16.17;84.69;96156.23;1789736;80;20989;-80
2022/05/25 04:49:35;;;;;;;11.63;10.45;;;;;;;16.17;84.64;96154.13;1789268;80;21367;-80
2022/05/25 04:52:01;;;;;;;12.58;10.53;;;;;;;16.17;84.69;96154.92;1789389;80;20962;-81
2022/05/25 04:54:27;;;;;;;11.53;10.05;;;;;;;16.19;84.70;96152.87;1788941;80;21007;-81
2022/05/25 04:59:36;;;;;;;9.78;8.78;;;;;;;16.28;84.98;96151.27;1789235;80;21080;-80
2022/05/25 05:02:03;;;;;;;11.05;8.95;;;;;;;16.30;84.58;96145.29;1784975;79;21068;-80
2022/05/25 05:04:28;;;;;;;9.18;8.25;;;;;;;16.29;84.46;96150.24;1788448;80;21016;-80
2022/05/25 05:06:54;;;;;;;9.20;8.28;;;;;;;16.31;85.00;96148.20;1787912;80;21001;-81
2022/05/25 05:09:20;;;;;;;7.78;7.05;;;;;;;16.38;85.36;96152.31;1788512;80;20999;-80
2022/05/25 05:11:47;;;;;;;9.28;8.35;;;;;;;16.44;85.07;96144.08;1789119;80;20973;-80
2022/05/25 05:14:15;;;;;;;12.47;10.00;;;;;;;16.50;85.46;96151.04;1771372;80;21022;-81
2022/05/25 05:16:41;;;;;;;10.90;9.80;;;;;;;16.55;85.02;96143.80;1783782;80;21432;-80
2022/05/25 05:19:07;;;;;;;13.08;11.70;;;;;;;16.53;85.40;96145.86;1759004;80;21022;-81
2022/05/25 05:21:33;;;;;;;13.13;10.93;;;;;;;16.52;85.33;96154.23;1760982;80;21062;-81
2022/05/25 05:23:59;;;;;;;12.30;11.10;;;;;;;16.53;85.84;96151.90;1767015;80;21003;-81
2022/05/25 05:26:25;;;;;;;14.23;12.35;;;;;;;16.55;86.15;96155.09;1770660;80;20994;-80
2022/05/25 05:28:53;;;;;;;14.47;13.08;;;;;;;16.61;86.58;96157.35;1769668;80;21059;-81
2022/05/25 05:31:19;;;;;;;15.85;13.50;;;;;;;16.65;86.16;96155.88;1766399;80;21002;-80
2022/05/25 05:33:45;;;;;;;15.63;14.03;;;;;;;16.68;85.97;96154.93;1775956;80;21445;-80
2022/05/25 05:36:25;;;;;;;14.65;13.25;;;;;;;16.69;85.70;96152.59;1766398;80;21121;-81
2022/05/25 05:39:07;;;;;;;12.65;11.45;;;;;;;16.70;85.54;96150.77;1766086;80;21432;-81
2022/05/25 05:41:37;;;;;;;10.88;9.88;;;;;;;16.70;85.40;96150.77;1777867;80;21011;-80
2022/05/25 05:44:03;;;;;;;10.90;9.90;;;;;;;16.70;85.19;96152.87;1765934;80;21441;-80
2022/05/25 05:46:29;;;;;;;12.18;10.90;;;;;;;16.71;84.93;96152.36;1768848;80;20963;-80
2022/05/25 05:48:55;;;;;;;11.53;10.30;;;;;;;16.72;85.04;96145.58;1797801;80;20965;-81
2022/05/25 05:51:21;;;;;;;12.53;10.72;;;;;;;16.74;85.02;96150.08;1789461;80;20971;-81
2022/05/25 05:53:48;;;;;;;11.03;9.93;;;;;;;16.68;85.01;96135.26;1770229;80;20956;-81
2022/05/25 05:56:14;;;;;;;12.55;11.35;;;;;;;16.78;84.90;96153.88;1743107;81;20999;-81
2022/05/25 05:58:39;;;;;;;13.55;12.28;;;;;;;16.76;85.42;96155.93;1782595;80;20937;-81
2022/05/25 06:01:05;;;;;;;10.43;9.33;;;;;;;16.78;85.65;96149.14;1769837;80;21421;-81
2022/05/25 06:03:31;;;;;;;12.55;11.35;;;;;;;16.82;85.33;96145.03;1772019;80;20986;-81
2022/05/25 06:05:57;;;;;;;14.45;12.50;;;;;;;16.85;85.29;96158.21;1793178;79;20975;-81
2022/05/25 06:08:26;;;;;;;84.28;61.00;;;;;;;16.83;85.47;96152.39;1797915;80;20949;-80
2022/05/25 06:10:52;;;;;;;20.08;16.95;;;;;;;16.84;85.59;96153.98;1798004;80;20960;-81
2022/05/25 06:13:17;;;;;;;12.98;11.68;;;;;;;16.81;85.09;96155.25;1793770;80;21026;-81
2022/05/25 06:21:19;;;;;;;12.63;11.33;;;;;;;16.74;85.34;96146.66;1775682;80;22054;-80
2022/05/25 06:23:45;;;;;;;15.88;14.33;;;;;;;16.72;85.18;96143.47;1772303;80;20968;-80
2022/05/25 06:26:10;;;;;;;14.55;13.13;;;;;;;16.73;85.30;96145.06;1772434;80;20994;-80
2022/05/25 06:28:36;;;;;;;13.25;11.88;;;;;;;16.69;85.25;96149.97;1787290;80;21016;-80
2022/05/25 06:31:03;;;;;;;15.75;14.23;;;;;;;16.71;85.77;96154.48;1773173;80;21490;-80
2022/05/25 06:33:29;;;;;;;15.93;14.33;;;;;;;16.76;86.05;96163.80;1784258;80;20959;-80
2022/05/25 06:35:56;;;;;;;13.80;12.40;;;;;;;16.78;85.71;96164.89;1755406;81;20947;-80
2022/05/25 06:38:22;;;;;;;14.58;13.20;;;;;;;16.80;85.71;96158.89;1758079;81;21031;-80
2022/05/25 06:40:48;;;;;;;14.73;13.35;;;;;;;16.86;85.69;96162.43;1743158;81;21030;-80
2022/05/25 06:43:13;;;;;;;15.30;13.45;;;;;;;16.86;85.51;96168.48;1766019;80;21274;-80
2022/05/25 06:45:39;;;;;;;14.18;12.85;;;;;;;16.85;85.69;96167.39;1772204;80;20950;-80
2022/05/25 06:48:07;;;;;;;14.40;12.73;;;;;;;16.85;86.04;96169.51;1770888;80;20962;-81
2022/05/25 06:50:34;;;;;;;11.05;9.95;;;;;;;16.82;85.51;96167.34;1770697;80;20994;-80
2022/05/25 06:53:00;;;;;;;11.05;9.95;;;;;;;16.83;85.44;96173.38;1778601;79;20966;-80
2022/05/25 06:55:25;;;;;;;12.58;11.28;;;;;;;16.83;85.21;96170.77;1778196;79;21321;-80
2022/05/25 06:57:52;;;;;;;10.00;9.00;;;;;;;16.85;85.69;96172.13;1782145;79;20954;-80
2022/05/25 07:00:18;;;;;;;8.95;7.90;;;;;;;16.91;85.62;96173.84;1776082;80;21058;-80
2022/05/25 07:02:44;;;;;;;8.00;7.20;;;;;;;16.91;85.34;96176.46;1796581;80;20947;-80
2022/05/25 07:05:10;;;;;;;8.30;7.50;;;;;;;16.89;85.12;96168.53;1789715;79;21270;-81
2022/05/25 07:07:38;;;;;;;8.13;7.42;;;;;;;16.83;84.98;96171.56;1776390;80;20943;-81
2022/05/25 07:10:05;;;;;;;7.95;7.10;;;;;;;16.77;85.03;96171.95;1776924;80;20981;-80
2022/05/25 07:12:32;;;;;;;7.67;6.87;;;;;;;16.72;85.19;96171.81;1798195;79;20962;-80
2022/05/25 07:14:58;;;;;;;7.92;7.15;;;;;;;16.69;85.23;96179.34;1793491;80;20903;-81
2022/05/25 07:17:23;;;;;;;7.28;6.50;;;;;;;16.67;85.39;96183.50;1796950;80;20942;-80
2022/05/25 07:19:49;;;;;;;8.18;7.05;;;;;;;16.65;85.24;96190.77;1786922;80;20923;-80
2022/05/25 07:22:15;;;;;;;6.30;5.70;;;;;;;16.59;85.15;96182.98;1776345;80;20922;-80
2022/05/25 07:24:40;;;;;;;7.15;6.47;;;;;;;16.57;85.24;96189.77;1771108;80;20955;-82
2022/05/25 07:27:06;;;;;;;7.72;6.45;;;;;;;16.53;85.34;96183.37;1769720;80;20922;-80
2022/05/25 07:29:32;;;;;;;6.85;6.17;;;;;;;16.54;85.43;96184.97;1793241;80;20978;-81
2022/05/25 07:32:04;;;;;;;7.40;6.70;;;;;;;16.58;85.94;96182.18;1774240;79;20966;-81
2022/05/25 07:34:39;;;;;;;10.13;8.73;;;;;;;16.63;86.45;96186.27;1780444;80;21020;-80
2022/05/25 07:37:11;;;;;;;11.28;9.10;;;;;;;16.66;86.23;96192.88;1797825;79;21060;-82
2022/05/25 07:39:48;;;;;;;11.50;10.40;;;;;;;16.69;86.46;96203.75;1776551;80;20994;-82
2022/05/25 07:42:14;;;;;;;14.30;11.85;;;;;;;16.75;86.31;96205.98;1765590;80;21058;-82
2022/05/25 07:44:46;;;;;;;13.72;12.13;;;;;;;16.77;85.92;96206.58;1774158;80;21041;-82
2022/05/25 07:47:13;;;;;;;16.00;14.40;;;;;;;16.78;85.63;96207.66;1771564;80;20997;-82
2022/05/25 07:49:39;;;;;;;20.27;17.82;;;;;;;16.81;85.90;96205.10;1770363;80;20927;-83
2022/05/25 07:52:06;;;;;;;20.65;18.65;;;;;;;16.80;86.01;96201.67;1770319;80;20993;-83
2022/05/25 07:54:31;;;;;;;23.77;21.23;;;;;;;16.79;86.07;96203.22;1779593;80;21007;-83
2022/05/25 07:56:59;;;;;;;22.93;20.45;;;;;;;16.77;85.93;96206.07;1771131;79;21075;-84
2022/05/25 07:59:24;;;;;;;22.52;20.25;;;;;;;16.75;85.71;96209.91;1789556;80;21112;-84
2022/05/25 08:07:26;;;;;;;20.05;18.17;;;;;;;16.73;85.70;96214.08;1750992;80;20990;-84
2022/05/25 08:09:55;;;;;;;20.65;18.15;;;;;;;16.73;85.68;96211.97;1791197;80;21438;-84
2022/05/25 08:12:21;;;;;;;21.52;19.40;;;;;;;16.72;85.73;96212.99;1781148;80;21305;-85
2022/05/25 08:14:47;;;;;;;22.35;19.92;;;;;;;16.70;85.89;96205.86;1787938;79;20941;-85
2022/05/25 08:17:13;;;;;;;20.37;18.40;;;;;;;16.69;86.17;96209.00;1783403;80;20937;-85
2022/05/25 08:19:39;;;;;;;20.43;18.45;;;;;;;16.68;85.99;96207.40;1796552;80;21339;-84
2022/05/25 08:22:06;;;;;;;22.00;19.67;;;;;;;16.64;85.90;96208.05;1797587;79;20953;-85
2022/05/25 08:24:32;;;;;;;21.30;19.32;;;;;;;16.65;86.05;96214.38;1797640;79;21052;-84
2022/05/25 08:26:59;;;;;;;20.02;18.02;;;;;;;16.67;86.31;96208.94;1797880;80;21025;-84
2022/05/25 08:29:25;;;;;;;19.85;17.77;;;;;;;16.71;86.45;96212.70;1797258;79;21029;-84
2022/05/25 08:31:55;;;;;;;20.60;18.57;;;;;;;16.75;86.49;96219.09;1795831;79;21032;-84
2022/05/25 08:34:20;;;;;;;20.30;18.30;;;;;;;16.73;86.00;96226.39;1795885;79;20954;-84
2022/05/25 08:36:46;;;;;;;21.07;18.98;;;;;;;16.66;85.80;96227.78;1795868;79;21402;-84
2022/05/25 08:39:12;;;;;;;21.70;19.50;;;;;;;16.59;85.78;96229.68;1796131;79;21001;-84
2022/05/25 08:41:38;;;;;;;21.40;19.20;;;;;;;16.54;86.13;96234.00;1796099;79;20989;-84
2022/05/25 08:44:04;;;;;;;21.17;19.15;;;;;;;16.52;86.28;96231.61;1795382;79;21028;-84
2022/05/25 08:46:31;;;;;;;21.70;19.55;;;;;;;16.51;86.26;96236.56;1795894;79;20989;-84
2022/05/25 08:49:01;;;;;;;20.23;18.23;;;;;;;16.54;86.54;96234.00;1796277;79;20957;-84
2022/05/25 08:51:27;;;;;;;23.02;20.62;;;;;;;16.53;86.42;96235.83;1759940;80;20970;-84
2022/05/25 08:53:55;;;;;;;23.35;20.97;;;;;;;16.51;86.47;96240.50;1795716;79;21024;-84
2022/05/25 08:56:48;;;;;;;22.35;20.15;;;;;;;16.54;86.71;96237.42;1758224;80;21119;-84
2022/05/25 08:59:24;;;;;;;21.23;19.15;;;;;;;16.60;87.02;96239.69;1795939;79;20977;-84
2022/05/25 09:02:06;;;;;;;20.65;18.52;;;;;;;16.60;86.71;96241.00;1795672;79;21048;-84
2022/05/25 09:04:50;;;;;;;21.12;19.00;;;;;;;16.58;86.63;96241.20;1795829;79;20992;-84
2022/05/25 09:07:44;;;;;;;21.90;19.67;;;;;;;16.57;86.81;96240.11;1796069;79;21348;-84
2022/05/25 09:10:13;;;;;;;20.57;18.60;;;;;;;16.60;86.72;96244.42;1795958;80;21343;-85
2022/05/25 09:12:53;;;;;;;21.42;19.15;;;;;;;16.64;86.99;96246.88;1784301;80;22307;-84
2022/05/25 09:15:32;;;;;;;22.40;20.20;;;;;;;16.64;86.77;96251.33;1795704;80;21017;-84
2022/05/25 09:18:06;;;;;;;22.52;20.35;;;;;;;16.64;86.91;96250.81;1796052;80;21036;-85
2022/05/25 09:20:44;;;;;;;21.30;19.23;;;;;;;16.70;87.21;96255.70;1784635;80;20957;-85
2022/05/25 09:23:11;;;;;;;20.30;18.40;;;;;;;16.70;86.97;96256.50;1795864;79;20993;-85
2022/05/25 09:25:38;;;;;;;21.12;19.10;;;;;;;16.69;86.97;96258.84;1795652;79;20966;-84
2022/05/25 09:28:16;;;;;;;17.77;16.02;;;;;;;16.61;86.71;96267.52;1796042;79;20941;-85
2022/05/25 09:30:43;;;;;;;17.95;14.65;;;;;;;16.54;86.85;96270.21;1796710;79;21454;-85
2022/05/25 09:33:22;;;;;;;17.80;13.55;;;;;;;16.44;86.65;96272.58;1797820;79;20981;-85
2022/05/25 09:35:54;;;;;;;14.50;13.00;;;;;;;16.32;86.77;96280.38;1797305;79;21025;-84
2022/05/25 09:39:03;;;;;;;13.70;12.40;;;;;;;16.27;86.91;96277.62;1797742;79;21020;-85
2022/05/25 09:41:31;;;;;;;13.05;11.65;;;;;;;16.22;87.13;96280.08;1798026;80;21344;-85
2022/05/25 09:44:01;;;;;;;12.63;11.38;;;;;;;16.19;87.19;96277.91;1797891;79;20994;-85
2022/05/25 09:46:36;;;;;;;13.43;12.13;;;;;;;16.17;87.30;96281.26;1782178;80;20934;-85
2022/05/25 09:49:05;;;;;;;14.38;12.98;;;;;;;16.14;87.36;96283.01;1797951;79;20934;-85
2022/05/25 09:51:36;;;;;;;14.25;12.85;;;;;;;16.14;87.58;96272.52;1797871;79;21056;-85
2022/05/25 09:54:21;;;;;;;15.23;13.73;;;;;;;16.14;87.71;96281.19;1798256;79;21012;-85
2022/05/25 09:57:06;;;;;;;14.55;13.15;;;;;;;16.14;87.86;96278.56;1797970;80;21190;-85
2022/05/25 09:59:52;;;;;;;18.60;16.75;;;;;;;16.16;88.08;96278.34;1797866;79;21048;-85
2022/05/25 10:02:24;;;;;;;15.28;13.68;;;;;;;16.14;88.25;96282.50;1797931;79;21421;-84
2022/05/25 10:04:52;;;;;;;13.68;12.45;;;;;;;16.14;88.68;96294.30;1797997;79;21008;-85
2022/05/25 10:07:34;;;;;;;15.40;13.80;;;;;;;16.15;88.61;96295.09;1798092;79;20993;-85
2022/05/25 10:10:05;;;;;;;13.32;12.03;;;;;;;16.15;88.91;96294.59;1797763;79;20965;-85
2022/05/25 10:12:43;;;;;;;11.28;10.08;;;;;;;16.11;88.69;96299.98;1797655;79;21002;-85
2022/05/25 10:15:16;;;;;;;6.30;5.78;;;;;;;16.03;88.05;96310.73;1794812;79;20993;-87
2022/05/25 10:17:46;;;;;;;6.12;5.53;;;;;;;15.81;85.92;96316.10;1797800;79;21030;-87
2022/05/25 10:20:28;;;;;;;7.10;5.78;;;;;;;15.49;85.48;96332.36;1797546;79;21448;-87
2022/05/25 10:23:24;;;;;;;;;;;;;;;15.24;85.03;96334.94;1800556;79;20973;-86
2022/05/25 10:25:52;;;;;;;7.30;6.60;;;;;;;14.96;84.63;96344.47;1760288;81;20088;-87
2022/05/25 10:28:32;;;;;;;7.85;7.10;;;;;;;14.65;84.96;96349.97;1722933;81;20924;-87
2022/05/25 10:37:12;;;;;;;6.75;6.15;;;;;;;14.34;85.70;96356.38;1758637;81;21374;-88
2022/05/25 10:39:45;;;;;;;8.28;7.53;;;;;;;14.31;85.55;96360.69;1766231;80;20989;-88
2022/05/25 10:42:45;;;;;;;9.00;8.20;;;;;;;14.28;86.03;96370.25;1775667;80;21051;-88
2022/05/25 10:45:20;;;;;;;9.70;8.68;;;;;;;14.25;86.22;96378.00;1766616;80;20965;-88
2022/05/25 10:48:11;;;;;;;8.40;7.70;;;;;;;14.20;86.17;96381.74;1780792;80;20983;-86
2022/05/25 10:50:48;;;;;;;8.70;7.25;;;;;;;14.18;85.85;96382.45;1788938;80;20952;-86
2022/05/25 10:57:21;;;;;;;7.50;6.17;;;;;;;14.00;85.26;96394.84;1782370;79;20991;-85
2022/05/25 11:00:14;;;;;;;7.20;6.60;;;;;;;13.87;85.35;96397.45;1727096;81;21072;-85
2022/05/25 11:02:56;;;;;;;7.42;6.72;;;;;;;13.80;85.77;96401.36;1781513;80;20997;-85
2022/05/25 11:06:01;;;;;;;6.90;5.37;;;;;;;13.79;86.33;96404.97;1759699;80;21026;-85
2022/05/25 11:08:45;;;;;;;5.28;4.78;;;;;;;13.80;86.05;96411.00;1732291;80;21358;-85
2022/05/25 11:11:29;;;;;;;8.58;4.95;;;;;;;13.75;85.79;96403.77;1788592;80;21056;-85
2022/05/25 11:14:22;;;;;;;6.80;5.47;;;;;;;13.71;85.88;96410.91;1787650;80;20936;-86
2022/05/25 11:16:58;;;;;;;6.75;6.05;;;;;;;13.66;85.71;96415.91;1781312;80;21373;-84
2022/05/25 11:19:50;;;;;;;6.08;5.47;;;;;;;13.58;85.98;96415.62;1775589;79;21408;-84
2022/05/25 11:22:41;;;;;;;6.10;5.33;;;;;;;13.55;86.23;96426.97;1778119;80;20979;-85
2022/05/25 11:25:30;;;;;;;7.00;6.40;;;;;;;13.48;86.26;96426.94;1781783;80;21067;-84
2022/05/25 11:28:29;;;;;;;8.28;7.33;;;;;;;13.45;86.30;96431.25;1779071;80;20988;-84
2022/05/25 11:31:33;;;;;;;7.37;6.65;;;;;;;13.36;86.24;96433.77;1783878;80;20987;-84
2022/05/25 11:34:20;;;;;;;7.12;6.17;;;;;;;13.31;86.21;96434.33;1774522;80;21047;-85
2022/05/25 11:37:03;;;;;;;6.17;5.42;;;;;;;13.24;86.13;96442.66;1775855;80;20995;-85
2022/05/25 11:40:06;;;;;;;6.20;5.05;;;;;;;13.18;85.82;96462.52;1777388;80;21059;-84
2022/05/25 11:42:59;;;;;;;5.25;4.62;;;;;;;13.12;85.46;96458.53;1777607;80;21385;-85
2022/05/25 11:46:19;;;;;;;6.03;4.62;;;;;;;13.10;85.77;96460.03;1778108;80;21368;-84
2022/05/25 11:49:28;;;;;;;4.87;4.42;;;;;;;13.11;85.30;96461.64;1781162;80;20947;-85
2022/05/25 11:52:22;;;;;;;5.80;5.30;;;;;;;13.09;84.96;96459.73;1786809;80;20967;-85
2022/05/25 11:55:20;;;;;;;9.28;5.42;;;;;;;13.08;85.94;96446.39;1784407;79;21388;-85
2022/05/25 11:58:18;;;;;;;6.75;5.97;;;;;;;13.13;86.29;96440.57;1780934;79;21342;-85
2022/05/25 12:01:20;;;;;;;6.90;6.20;;;;;;;13.14;86.06;96453.42;1786561;79;21365;-85
2022/05/25 12:04:22;;;;;;;8.40;6.78;;;;;;;13.20;86.38;96464.42;1778017;80;20972;-85
2022/05/25 12:07:30;;;;;;;7.35;6.55;;;;;;;13.26;86.16;96465.44;1790276;79;21043;-85
2022/05/25 12:10:14;;;;;;;7.60;6.90;;;;;;;13.29;85.60;96461.62;1797885;80;21001;-84
2022/05/25 12:12:59;;;;;;;7.92;7.00;;;;;;;13.28;86.00;96454.80;1789714;80;20991;-85
2022/05/25 12:15:33;;;;;;;7.62;6.47;;;;;;;13.34;86.26;96452.70;1783848;79;20968;-85
2022/05/25 12:18:16;;;;;;;8.13;6.20;;;;;;;13.38;86.16;96453.94;1804532;79;21031;-84
2022/05/25 12:20:51;;;;;;;8.73;7.58;;;;;;;13.43;86.21;96460.66;1796610;79;21015;-85
2022/05/25 12:23:23;;;;;;;8.95;7.53;;;;;;;13.43;85.87;96468.50;1794071;79;21082;-85
2022/05/25 12:25:56;;;;;;;11.05;9.48;;;;;;;13.36;85.93;96459.86;1779793;80;20983;-85